Time;durP1;ratioP1;P1;durP2;ratioP2;P2;SDS_P1;SDS_P2;PMS_P1;PMS_P2;Temp;Humidity;BMP_temperature;BMP_pressure;BME280_temperature;BME280_humidity;BME280_pressure;Samples;Min_cycle;Max_cycle;Signal;HPM_P1;HPM_P2
2022/01/01 00:02:07;;;;;;;;;47.75;39.50;;;;;12.51;76.75;101901.31;4994395;28;46166;-61
2022/01/01 00:04:33;;;;;;;;;52.50;41.00;;;;;12.74;77.46;101943.28;4789249;28;45631;-58
2022/01/01 00:06:58;;;;;;;;;49.50;39.75;;;;;12.74;77.52;101947.94;4607167;28;45520;-55
2022/01/01 00:09:24;;;;;;;;;54.75;44.50;;;;;12.57;77.14;101917.91;4863193;28;45632;-61
2022/01/01 00:11:49;;;;;;;;;42.50;36.25;;;;;12.78;77.16;101945.63;4955616;28;45610;-59
2022/01/01 00:14:15;;;;;;;;;60.25;49.25;;;;;12.79;76.97;101950.94;4955290;28;45423;-53
2022/01/01 00:16:40;;;;;;;;;54.00;42.75;;;;;12.78;77.05;101949.25;4955523;28;45454;-60
2022/01/01 00:19:06;;;;;;;;;50.75;41.25;;;;;12.79;76.91;101950.09;4938151;28;45416;-58
2022/01/01 00:21:31;;;;;;;;;66.25;52.50;;;;;12.74;77.16;101947.94;4955709;28;47446;-57
2022/01/01 00:23:57;;;;;;;;;64.50;50.25;;;;;12.77;76.82;101949.44;4955625;28;45407;-55
2022/01/01 00:26:23;;;;;;;;;55.75;45.00;;;;;12.54;77.06;101914.69;4937951;28;45336;-61
2022/01/01 00:28:48;;;;;;;;;57.00;43.75;;;;;12.79;76.89;101941.81;4955593;28;45322;-58
2022/01/01 00:31:14;;;;;;;;;55.75;43.75;;;;;12.71;77.02;101937.31;4953505;28;47415;-54
2022/01/01 00:33:39;;;;;;;;;55.50;43.50;;;;;12.80;76.54;101944.38;4954965;28;45400;-61
2022/01/01 00:36:05;;;;;;;;;53.50;42.00;;;;;12.73;76.53;101941.59;4955491;28;45329;-60
2022/01/01 00:38:30;;;;;;;;;48.75;39.25;;;;;12.78;76.80;101940.13;4954431;28;45273;-55
2022/01/01 00:40:56;;;;;;;;;45.50;39.50;;;;;12.78;76.34;101943.75;4954176;28;46917;-62
2022/01/01 00:43:21;;;;;;;;;51.25;42.25;;;;;12.76;76.08;101943.09;4953581;28;45443;-60
2022/01/01 00:45:47;;;;;;;;;49.50;41.25;;;;;12.61;76.37;101921.13;4938349;28;45325;-53
2022/01/01 00:48:13;;;;;;;;;48.50;39.25;;;;;12.72;76.46;101941.78;4955621;28;45496;-59
2022/01/01 00:50:42;;;;;;;;;53.00;39.50;;;;;12.73;76.67;101943.47;4946690;28;46431;-62
2022/01/01 00:53:08;;;;;;;;;41.00;37.40;;;;;12.57;76.62;101926.16;4951468;28;45408;-61
2022/01/01 00:55:34;;;;;;;;;57.25;44.00;;;;;12.63;76.30;101927.28;4953677;28;45408;-57
2022/01/01 00:58:00;;;;;;;;;50.50;41.25;;;;;12.79;75.92;101950.09;4955092;28;45388;-58
2022/01/01 01:00:26;;;;;;;;;45.40;37.00;;;;;12.76;76.12;101948.59;4941257;28;45442;-61
2022/01/01 01:02:51;;;;;;;;;54.00;43.50;;;;;12.74;76.51;101954.31;4958957;28;45313;-56
2022/01/01 01:05:17;;;;;;;;;40.50;35.75;;;;;12.74;76.31;101943.28;4957269;28;45556;-58
2022/01/01 01:07:42;;;;;;;;;40.50;36.75;;;;;12.73;76.73;101929.69;4958624;28;45277;-62
2022/01/01 01:10:08;;;;;;;;;49.25;39.75;;;;;12.72;76.65;101941.78;4958163;28;46406;-60
2022/01/01 01:12:45;;;;;;;;;51.50;40.75;;;;;12.58;76.83;101910.47;4958505;28;45430;-56
2022/01/01 01:15:17;;;;;;;;;54.80;40.80;;;;;12.77;76.43;101944.78;4958621;28;45291;-60
2022/01/01 01:17:46;;;;;;;;;54.80;44.20;;;;;12.76;76.90;101944.97;4958740;28;45289;-57
2022/01/01 01:20:12;;;;;;;;;49.60;40.20;;;;;12.78;76.20;101948.38;4941253;28;45530;-54
2022/01/01 01:22:38;;;;;;;;;53.00;40.00;;;;;12.76;76.02;101937.59;4958150;28;45407;-60
2022/01/01 01:25:04;;;;;;;;;43.75;38.75;;;;;12.22;76.54;101854.41;4958191;28;45317;-60
2022/01/01 01:27:30;;;;;;;;;41.80;35.60;;;;;12.72;76.27;101934.34;4941330;28;45602;-53
2022/01/01 01:29:58;;;;;;;;;46.40;39.40;;;;;12.69;76.35;101933.88;4941357;28;45527;-57
2022/01/01 01:32:24;;;;;;;;;49.80;37.80;;;;;12.61;76.66;101935.72;4958057;28;45712;-57
2022/01/01 01:34:49;;;;;;;;;126.00;112.67;;;;;12.60;76.64;101931.28;4940758;28;45450;-61
2022/01/01 01:37:15;;;;;;;;;49.75;40.50;;;;;12.59;77.10;101926.81;4958196;28;45471;-58
2022/01/01 01:39:40;;;;;;;;;42.00;36.25;;;;;12.59;76.83;101935.06;4940282;28;46500;-58
2022/01/01 01:42:06;;;;;;;;;50.25;40.50;;;;;12.56;76.97;101932.72;4957856;28;45363;-62
2022/01/01 01:44:34;;;;;;;;;44.50;39.00;;;;;12.47;77.13;101942.16;4957874;28;45732;-59
2022/01/01 01:47:02;;;;;;;;;42.00;35.80;;;;;12.39;77.33;101934.84;4958099;28;45225;-59
2022/01/01 01:49:28;;;;;;;;;48.40;38.20;;;;;12.32;77.54;101934.78;4939929;28;47070;-56
2022/01/01 01:51:54;;;;;;;;;42.60;36.80;;;;;12.37;77.63;101936.13;4940459;28;45446;-59
2022/01/01 01:54:19;;;;;;;;;42.50;36.75;;;;;12.38;77.47;101952.44;4957355;28;45413;-59
2022/01/01 01:56:45;;;;;;;;;41.00;34.50;;;;;12.35;77.43;101941.81;4940035;28;45359;-55
2022/01/01 01:59:11;;;;;;;;;32.25;29.25;;;;;12.29;77.70;101929.69;4956083;28;47062;-56
2022/01/01 02:01:36;;;;;;;;;36.25;33.25;;;;;12.16;77.42;101897.34;4940134;28;45471;-58
2022/01/01 02:04:02;;;;;;;;;33.25;32.00;;;;;12.32;77.40;101929.28;4957492;28;45361;-58
2022/01/01 02:06:27;;;;;;;;;38.25;31.50;;;;;12.31;77.72;101933.09;4957375;28;45287;-54
2022/01/01 02:08:53;;;;;;;;;39.75;35.25;;;;;12.30;77.77;101930.53;4956323;28;46538;-56
2022/01/01 02:11:20;;;;;;;;;36.50;32.25;;;;;12.26;77.83;101931.94;4957022;28;45405;-60
2022/01/01 02:14:37;;;;;;;;;38.00;34.00;;;;;12.00;77.88;101898.41;4957301;28;45444;-58
2022/01/01 02:17:17;;;;;;;;;89.00;75.00;;;;;12.24;77.61;101936.81;4946601;28;46867;-59
2022/01/01 02:19:28;;;;;;;;;38.80;33.60;;;;;12.20;77.64;101930.84;4949526;28;45924;-54
2022/01/01 02:21:57;;;;;;;;;31.80;29.60;;;;;11.94;77.32;101896.41;4956776;28;45322;-60
2022/01/01 02:24:23;;;;;;;;;41.40;36.60;;;;;12.12;77.77;101925.47;4957447;28;45742;-60
2022/01/01 02:26:49;;;;;;;;;53.60;41.20;;;;;12.12;77.81;101917.19;4940618;28;45869;-59
2022/01/01 02:29:14;;;;;;;;;33.00;29.50;;;;;11.93;78.13;101892.84;4936301;28;46756;-54
2022/01/01 02:31:40;;;;;;;;;32.25;25.00;;;;;12.10;78.02;101917.38;4923575;28;45336;-60
2022/01/01 02:34:06;;;;;;;;;28.50;27.00;;;;;12.00;77.51;101908.56;4957134;28;45346;-59
2022/01/01 02:36:39;;;;;;;;;31.80;28.00;;;;;12.04;78.13;101927.28;4939748;28;45515;-56
2022/01/01 02:39:23;;;;;;;;;36.20;26.60;;;;;11.99;77.97;101924.22;4939311;28;47652;-60
2022/01/01 02:41:51;;;;;;;;;31.00;26.20;;;;;12.01;78.36;101916.63;4956331;28;45361;-61
2022/01/01 02:44:17;;;;;;;;;29.00;27.20;;;;;11.88;77.99;101891.69;4956697;28;45472;-61
2022/01/01 02:46:42;;;;;;;;;30.25;28.75;;;;;11.99;77.97;101912.34;4956773;28;45329;-57
2022/01/01 02:49:08;;;;;;;;;29.75;28.00;;;;;11.96;78.09;101910.84;4956696;28;45285;-54
2022/01/01 02:51:33;;;;;;;;;33.00;31.00;;;;;11.96;78.02;101908.09;4956343;28;45377;-61
2022/01/01 02:53:59;;;;;;;;;41.25;33.00;;;;;11.88;78.29;101900.81;4955518;28;45666;-58
2022/01/01 02:56:25;;;;;;;;;23.00;18.25;;;;;11.93;78.22;101913.97;4938890;28;45718;-54
2022/01/01 02:58:51;;;;;;;;;30.75;29.75;;;;;11.89;78.25;101912.66;4956439;28;46534;-64
2022/01/01 03:01:17;;;;;;;;;31.40;27.80;;;;;11.91;78.24;101916.06;4956484;28;45396;-61
2022/01/01 03:03:42;;;;;;;;;33.20;29.60;;;;;11.91;78.31;101914.16;4923535;28;45946;-56
2022/01/01 03:06:08;;;;;;;;;28.75;23.75;;;;;11.93;78.18;101916.72;4939334;28;45340;-52
2022/01/01 03:08:34;;;;;;;;;32.50;28.25;;;;;11.92;78.10;101912.28;4938774;28;46220;-60
2022/01/01 03:11:02;;;;;;;;;40.00;31.50;;;;;11.90;78.06;101914.38;4956304;28;45305;-57
2022/01/01 03:13:30;;;;;;;;;41.40;33.80;;;;;11.90;78.08;101909.72;4956623;28;45332;-55
2022/01/01 03:15:56;;;;;;;;;38.00;32.00;;;;;11.82;77.81;101906.22;4956434;28;45463;-54
2022/01/01 03:18:21;;;;;;;;;34.75;32.25;;;;;11.87;78.24;101912.00;4956368;28;46048;-57
2022/01/01 03:20:47;;;;;;;;;29.75;28.50;;;;;11.88;78.35;101921.94;4955388;28;45403;-60
2022/01/01 03:23:12;;;;;;;;;35.75;33.50;;;;;11.73;78.13;101895.31;4955862;28;45333;-55
2022/01/01 03:25:38;;;;;;;;;34.75;31.00;;;;;11.66;77.83;101886.13;4956340;28;45364;-57
2022/01/01 03:28:04;;;;;;;;;29.00;26.25;;;;;11.88;77.78;101920.06;4956215;28;45396;-60
2022/01/01 03:30:30;;;;;;;;;31.00;30.40;;;;;11.89;78.47;101924.50;4955899;28;45253;-59
2022/01/01 03:32:55;;;;;;;;;31.25;30.75;;;;;11.88;77.98;101922.81;4956005;28;45329;-54
2022/01/01 03:35:21;;;;;;;;;32.50;31.00;;;;;11.87;78.21;101920.25;4956353;28;45466;-57
2022/01/01 03:37:46;;;;;;;;;34.50;29.50;;;;;11.87;77.88;101923.88;4956055;28;46482;-59
2022/01/01 03:40:12;;;;;;;;;31.25;30.00;;;;;11.87;77.92;101914.75;4955897;28;45368;-53
2022/01/01 03:42:38;;;;;;;;;32.00;30.25;;;;;11.88;77.69;101914.56;4956318;28;45685;-57
2022/01/01 03:45:05;;;;;;;;;40.25;35.00;;;;;11.87;77.81;101909.25;4956228;28;45857;-57
2022/01/01 03:47:31;;;;;;;;;24.80;23.00;;;;;11.72;77.86;101888.13;4955379;28;45677;-59
2022/01/01 03:49:56;;;;;;;;;27.00;27.00;;;;;11.77;77.82;101902.16;4956116;28;45327;-57
2022/01/01 03:52:22;;;;;;;;;37.25;32.50;;;;;11.73;78.20;101916.47;4956033;28;45843;-57
2022/01/01 03:54:47;;;;;;;;;27.75;24.00;;;;;11.69;78.20;101907.72;4971280;28;45798;-61
2022/01/01 03:57:13;;;;;;;;;37.50;32.50;;;;;11.69;78.06;101907.72;4955341;28;46718;-58
2022/01/01 03:59:38;;;;;;;;;31.00;30.00;;;;;11.70;78.14;101914.97;4954970;28;45411;-57
2022/01/01 04:02:04;;;;;;;;;35.75;29.75;;;;;11.69;78.02;101913.22;4955850;28;45557;-60
2022/01/01 04:04:30;;;;;;;;;34.50;30.75;;;;;11.52;77.99;101883.19;4955847;28;45365;-57
2022/01/01 04:06:55;;;;;;;;;30.75;29.50;;;;;11.69;78.15;101912.41;4955310;28;45470;-56
2022/01/01 04:09:21;;;;;;;;;32.75;29.50;;;;;11.74;78.51;101905.28;4938211;28;45302;-57
2022/01/01 04:11:46;;;;;;;;;30.00;26.75;;;;;11.61;78.17;101880.34;4955625;28;45364;-57
2022/01/01 04:14:15;;;;;;;;;55.50;44.50;;;;;11.81;77.75;101913.63;4955882;28;45263;-54
2022/01/01 04:16:40;;;;;;;;;33.00;30.60;;;;;11.82;77.73;101907.06;4938635;28;45604;-50
2022/01/01 04:19:06;;;;;;;;;35.50;31.50;;;;;11.83;77.65;101903.28;4955620;28;45419;-53
2022/01/01 04:21:31;;;;;;;;;37.50;34.50;;;;;11.80;77.60;101914.69;4945603;28;45588;-56
2022/01/01 04:23:57;;;;;;;;;33.25;32.00;;;;;11.77;77.62;101915.91;4945514;28;45754;-51
2022/01/01 04:26:24;;;;;;;;;36.50;29.75;;;;;11.82;77.74;101911.72;4938177;28;46126;-53
2022/01/01 04:28:49;;;;;;;;;30.80;28.60;;;;;11.62;77.60;101880.16;4955993;28;45297;-58
2022/01/01 04:31:15;;;;;;;;;31.50;27.75;;;;;11.72;77.10;101895.50;4955913;28;45272;-54
2022/01/01 04:33:41;;;;;;;;;29.00;27.25;;;;;11.77;77.51;101899.41;4924634;28;45591;-52
2022/01/01 04:36:07;;;;;;;;;30.80;27.20;;;;;11.73;77.21;101898.06;4958905;28;45723;-55
2022/01/01 04:41:04;;;;;;;;;30.60;27.60;;;;;11.49;77.10;101872.56;4959182;28;45392;-55
2022/01/01 04:43:30;;;;;;;;;26.00;25.60;;;;;11.59;77.00;101901.69;4941301;28;45641;-60
2022/01/01 04:45:55;;;;;;;;;28.50;22.75;;;;;11.46;77.53;101905.94;4958228;28;45698;-56
2022/01/01 04:48:21;;;;;;;;;28.75;22.75;;;;;11.42;78.07;101901.03;4959046;28;45404;-55
2022/01/01 04:50:46;;;;;;;;;35.25;29.50;;;;;11.35;77.96;101896.28;4958888;28;45402;-60
2022/01/01 04:53:16;;;;;;;;;28.50;27.50;;;;;11.29;78.07;101886.03;4958442;28;45348;-57
2022/01/01 04:55:41;;;;;;;;;22.20;19.00;;;;;11.35;78.25;101890.78;4958294;28;46065;-56
2022/01/01 04:58:07;;;;;;;;;20.75;20.75;;;;;11.08;77.62;101835.44;4958281;28;45508;-59
2022/01/01 05:00:32;;;;;;;;;22.50;21.25;;;;;11.33;77.77;101887.38;4958754;28;45583;-58
2022/01/01 05:02:58;;;;;;;;;24.25;21.75;;;;;11.29;78.16;101885.19;4958686;28;45607;-55
2022/01/01 05:05:23;;;;;;;;;20.00;20.00;;;;;11.08;77.80;101862.03;4958331;28;45494;-52
2022/01/01 05:07:50;;;;;;;;;20.50;17.75;;;;;11.26;77.86;101905.66;4958190;28;45468;-54
2022/01/01 05:10:16;;;;;;;;;19.40;17.60;;;;;11.22;78.58;101899.66;4958595;28;45410;-59
2022/01/01 05:12:41;;;;;;;;;24.00;20.00;;;;;11.20;77.70;101904.50;4957374;28;45333;-52
2022/01/01 05:15:07;;;;;;;;;23.50;19.25;;;;;11.18;78.01;101905.75;4958474;28;46733;-53
2022/01/01 05:17:33;;;;;;;;;28.00;24.00;;;;;11.10;77.81;101887.47;4958153;28;45341;-59
2022/01/01 05:19:58;;;;;;;;;25.75;19.75;;;;;11.20;78.23;101912.75;4958596;28;45205;-56
2022/01/01 05:22:24;;;;;;;;;20.50;16.75;;;;;11.16;77.74;101897.66;4941066;28;45542;-55
2022/01/01 05:24:49;;;;;;;;;20.75;19.50;;;;;11.15;77.85;101904.22;4958424;28;46310;-53
2022/01/01 05:27:15;;;;;;;;;24.25;21.50;;;;;11.07;77.83;101894.19;4940534;28;45368;-60
2022/01/01 05:29:40;;;;;;;;;27.75;22.50;;;;;11.14;78.00;101902.50;4958494;28;45384;-51
2022/01/01 05:32:06;;;;;;;;;31.00;24.00;;;;;11.11;77.89;101909.22;4958729;28;45523;-54
2022/01/01 05:34:32;;;;;;;;;22.75;22.00;;;;;11.07;77.55;101899.69;4957828;28;45472;-60
2022/01/01 05:36:57;;;;;;;;;26.00;20.00;;;;;11.00;77.82;101890.47;4941213;28;45868;-56
2022/01/01 05:39:23;;;;;;;;;28.25;23.25;;;;;10.98;77.94;101878.81;4958770;28;45732;-56
2022/01/01 05:41:52;;;;;;;;;21.75;20.00;;;;;10.88;77.29;101864.50;4958349;28;45402;-54
2022/01/01 05:44:18;;;;;;;;;21.80;18.60;;;;;11.00;77.08;101895.09;4956803;28;46212;-53
2022/01/01 05:46:43;;;;;;;;;28.75;24.50;;;;;11.00;77.94;101900.59;4940802;28;45401;-59
2022/01/01 05:49:09;;;;;;;;;22.75;19.00;;;;;10.92;78.14;101885.91;4958185;28;45399;-54
2022/01/01 05:51:34;;;;;;;;;30.00;24.25;;;;;10.95;78.28;101891.00;4941149;28;45519;-54
2022/01/01 05:54:00;;;;;;;;;29.75;25.00;;;;;10.95;77.88;101888.28;4956692;28;45496;-57
2022/01/01 05:56:26;;;;;;;;;31.00;26.50;;;;;10.97;77.99;101888.97;4957913;28;45415;-57
2022/01/01 05:58:51;;;;;;;;;31.75;26.00;;;;;10.94;77.83;101872.84;4957214;28;45523;-55
2022/01/01 06:01:17;;;;;;;;;24.25;24.25;;;;;11.02;77.42;101882.91;4957931;28;45666;-55
2022/01/01 06:03:42;;;;;;;;;28.50;21.75;;;;;10.96;77.35;101881.75;4957214;28;45854;-60
2022/01/01 06:06:08;;;;;;;;;27.75;22.00;;;;;10.92;77.60;101868.56;4956808;28;45368;-54
2022/01/01 06:08:33;;;;;;;;;22.00;19.50;;;;;10.90;76.92;101879.75;4957256;28;45399;-54
2022/01/01 06:11:00;;;;;;;;;22.50;18.75;;;;;10.88;77.83;101879.06;4957890;28;45563;-54
2022/01/01 06:13:26;;;;;;;;;26.80;23.20;;;;;10.67;77.70;101846.84;4957350;28;46359;-54
2022/01/01 06:15:51;;;;;;;;;20.00;19.00;;;;;10.79;77.84;101874.69;4957246;28;45254;-53
2022/01/01 06:18:17;;;;;;;;;21.75;19.75;;;;;10.74;77.59;101867.03;4957623;28;45239;-51
2022/01/01 06:20:43;;;;;;;;;23.75;18.50;;;;;10.64;77.64;101855.44;4939973;28;45521;-50
2022/01/01 06:23:09;;;;;;;;;23.40;21.20;;;;;10.85;77.16;101885.78;4956903;28;45632;-58
2022/01/01 06:25:35;;;;;;;;;22.50;21.50;;;;;10.86;77.46;101878.41;4957216;28;45309;-55
2022/01/01 06:28:00;;;;;;;;;19.00;18.75;;;;;10.81;77.63;101884.47;4957517;28;45399;-51
2022/01/01 06:30:33;;;;;;;;;23.50;20.00;;;;;10.79;77.14;101885.69;4957417;28;45367;-55
2022/01/01 06:33:11;;;;;;;;;22.40;20.40;;;;;10.71;77.07;101873.75;4956899;28;46346;-54
2022/01/01 06:35:43;;;;;;;;;21.00;18.80;;;;;10.52;77.21;101842.16;4956705;28;45297;-54
2022/01/01 06:38:09;;;;;;;;;19.00;19.00;;;;;10.77;78.02;101885.88;4957017;28;45564;-56
2022/01/01 06:40:35;;;;;;;;;26.50;23.00;;;;;10.83;77.28;101884.25;4957725;28;45353;-53
2022/01/01 06:43:01;;;;;;;;;23.40;19.60;;;;;10.81;78.01;101880.84;4939362;28;46553;-60
2022/01/01 06:45:26;;;;;;;;;23.50;19.50;;;;;10.85;77.40;101876.72;4956788;28;45388;-58
2022/01/01 06:47:52;;;;;;;;;25.25;21.50;;;;;10.83;78.07;101870.53;4956189;28;45427;-51
2022/01/01 06:50:17;;;;;;;;;28.00;23.50;;;;;10.82;77.46;101861.44;4957149;28;45444;-56
2022/01/01 06:52:44;;;;;;;;;29.50;23.50;;;;;10.90;77.30;101876.16;4956644;28;45308;-58
2022/01/01 06:55:10;;;;;;;;;29.60;26.00;;;;;10.69;77.36;101837.34;4956341;28;45404;-53
2022/01/01 06:57:36;;;;;;;;;27.20;22.80;;;;;10.83;78.15;101885.13;4956536;28;45484;-52
2022/01/01 07:00:03;;;;;;;;;27.75;24.25;;;;;10.85;76.98;101876.72;4957284;28;45365;-55
2022/01/01 07:02:29;;;;;;;;;28.20;24.60;;;;;10.77;77.63;101874.03;4956091;28;46191;-60
2022/01/01 07:04:54;;;;;;;;;34.25;25.25;;;;;10.67;77.87;101875.13;4939312;28;45372;-58
2022/01/01 07:07:20;;;;;;;;;25.50;23.75;;;;;10.63;78.04;101873.81;4956698;28;45494;-55
2022/01/01 07:09:45;;;;;;;;;34.75;28.00;;;;;10.48;78.12;101839.97;4939085;28;45330;-56
2022/01/01 07:12:11;;;;;;;;;34.75;30.00;;;;;10.68;77.10;101876.00;4970763;28;48118;-59
2022/01/01 07:14:36;;;;;;;;;29.00;25.75;;;;;10.62;77.03;101874.00;4956479;28;45965;-55
2022/01/01 07:17:02;;;;;;;;;27.75;26.25;;;;;10.62;77.75;101877.56;4939360;28;45424;-54
2022/01/01 07:19:28;;;;;;;;;32.00;25.75;;;;;10.64;77.82;101877.41;4956487;28;45526;-59
2022/01/01 07:21:55;;;;;;;;;34.50;31.00;;;;;10.69;77.97;101877.72;4938869;28;47531;-59
2022/01/01 07:24:21;;;;;;;;;30.60;24.40;;;;;10.69;77.38;101874.97;4956319;28;45394;-53
2022/01/01 07:26:47;;;;;;;;;25.00;21.25;;;;;10.65;77.10;101868.13;4956415;28;45398;-55
2022/01/01 07:29:12;;;;;;;;;30.25;26.25;;;;;10.60;77.31;101871.44;4956278;28;45606;-52
2022/01/01 07:31:38;;;;;;;;;23.50;21.50;;;;;10.59;77.16;101869.72;4956290;28;45550;-58
2022/01/01 07:34:03;;;;;;;;;26.00;21.75;;;;;10.58;76.80;101877.09;4956198;28;45226;-56
2022/01/01 07:36:29;;;;;;;;;25.25;20.75;;;;;10.60;77.50;101882.41;4939053;28;45272;-55
2022/01/01 07:38:54;;;;;;;;;30.25;25.00;;;;;10.63;77.46;101879.31;4956427;28;45376;-60
2022/01/01 07:41:19;;;;;;;;;21.25;18.25;;;;;10.69;77.40;101875.78;4956237;28;45641;-57
2022/01/01 07:43:45;;;;;;;;;24.50;19.00;;;;;10.69;77.28;101881.28;4955875;28;45302;-53
2022/01/01 07:46:10;;;;;;;;;20.00;17.75;;;;;10.50;76.92;101852.47;4955819;28;45447;-53
2022/01/01 07:48:36;;;;;;;;;22.50;18.25;;;;;10.67;77.10;101882.53;4916223;28;46009;-60
2022/01/01 07:51:01;;;;;;;;;28.00;23.00;;;;;10.55;76.28;101862.88;4956052;28;46027;-52
2022/01/01 07:53:27;;;;;;;;;27.00;24.00;;;;;10.64;77.01;101871.91;4955828;28;45221;-59
2022/01/01 07:55:52;;;;;;;;;21.00;18.50;;;;;10.58;76.97;101863.38;4956081;28;45296;-60
2022/01/01 07:58:18;;;;;;;;;20.25;18.75;;;;;10.38;76.08;101840.19;4956338;28;45419;-52
2022/01/01 08:00:43;;;;;;;;;22.00;20.50;;;;;10.50;76.39;101854.34;4956204;28;45418;-57
2022/01/01 08:03:11;;;;;;;;;26.75;24.00;;;;;10.66;76.21;101887.16;4956033;28;45335;-59
2022/01/01 08:05:36;;;;;;;;;27.60;22.20;;;;;10.62;76.59;101887.72;4955856;28;45195;-60
2022/01/01 08:08:03;;;;;;;;;20.25;20.25;;;;;10.58;76.43;101888.06;4957802;28;45325;-54
2022/01/01 08:10:29;;;;;;;;;29.80;22.80;;;;;10.62;76.40;101887.72;4957738;28;46377;-53
2022/01/01 08:12:55;;;;;;;;;27.50;21.50;;;;;10.54;75.67;101884.00;4959411;28;45472;-57
2022/01/01 08:15:21;;;;;;;;;26.25;22.25;;;;;10.56;76.24;101889.28;4959187;28;45488;-60
2022/01/01 08:17:46;;;;;;;;;29.00;25.60;;;;;10.53;76.48;101886.94;4959520;28;45466;-58
2022/01/01 08:20:12;;;;;;;;;23.50;21.75;;;;;10.47;76.76;101879.44;4958715;28;45651;-54
2022/01/01 08:22:38;;;;;;;;;22.00;19.00;;;;;10.44;76.50;101875.16;4958988;28;45440;-55
2022/01/01 08:25:04;;;;;;;;;27.75;21.75;;;;;10.46;76.58;101866.75;4959207;28;45465;-60
2022/01/01 08:27:29;;;;;;;;;22.00;20.75;;;;;10.53;76.41;101865.84;4925834;28;45451;-54
2022/01/01 08:29:55;;;;;;;;;22.50;19.75;;;;;10.55;76.50;101850.03;4959142;28;46365;-57
2022/01/01 08:32:20;;;;;;;;;21.00;18.25;;;;;10.63;76.37;101864.72;4958097;28;45371;-60
2022/01/01 08:34:46;;;;;;;;;22.75;20.75;;;;;10.44;76.86;101844.97;4959117;28;45353;-58
2022/01/01 08:37:11;;;;;;;;;18.50;16.50;;;;;10.55;76.70;101862.88;4959496;28;45435;-54
2022/01/01 08:39:38;;;;;;;;;16.50;15.00;;;;;10.57;76.59;101875.38;4958831;28;45512;-59
2022/01/01 08:42:05;;;;;;;;;24.60;19.20;;;;;10.61;76.72;101869.56;4957867;28;45354;-58
2022/01/01 08:44:31;;;;;;;;;20.00;14.00;;;;;10.64;75.75;101866.41;4959056;28;45339;-53
2022/01/01 08:46:57;;;;;;;;;20.00;16.75;;;;;10.43;75.87;101835.03;4959054;28;45428;-52
2022/01/01 08:49:22;;;;;;;;;20.25;16.75;;;;;10.71;75.63;101873.75;4958943;28;46470;-59
2022/01/01 08:51:48;;;;;;;;;20.00;16.00;;;;;10.58;75.75;101846.06;4954912;28;45407;-62
2022/01/01 08:54:14;;;;;;;;;15.00;14.25;;;;;10.59;75.75;101856.00;4964424;28;45396;-57
2022/01/01 08:56:41;;;;;;;;;25.20;22.20;;;;;10.64;76.27;101861.78;4978301;28;45351;-56
2022/01/01 08:59:07;;;;;;;;;21.40;19.40;;;;;10.62;75.32;101855.63;4978061;28;45857;-57
2022/01/01 09:01:32;;;;;;;;;19.50;13.75;;;;;10.63;76.44;101854.59;4978480;28;45398;-58
2022/01/01 09:03:58;;;;;;;;;9.00;8.50;;;;;10.62;75.60;101857.53;4978775;28;45259;-55
2022/01/01 09:06:24;;;;;;;;;18.25;14.75;;;;;10.57;75.22;101869.91;4952009;28;45194;-54
2022/01/01 09:08:50;;;;;;;;;19.50;18.50;;;;;10.60;75.50;101874.19;4958247;28;45378;-58
2022/01/01 09:11:15;;;;;;;;;19.25;17.75;;;;;10.61;76.28;101878.63;4957278;28;46021;-55
2022/01/01 09:13:43;;;;;;;;;17.25;13.50;;;;;10.60;75.62;101865.06;4958497;28;45438;-53
2022/01/01 09:16:15;;;;;;;;;21.00;14.20;;;;;10.60;75.94;101859.56;4958212;28;45561;-51
2022/01/01 09:18:42;;;;;;;;;17.40;17.00;;;;;10.61;76.22;101850.34;4958051;28;45640;-51
2022/01/01 09:21:07;;;;;;;;;22.00;18.20;;;;;10.59;75.89;101850.50;4958007;28;45373;-53
2022/01/01 09:23:33;;;;;;;;;20.50;20.00;;;;;10.59;75.24;101850.50;4940644;28;45518;-59
2022/01/01 09:26:00;;;;;;;;;13.75;13.25;;;;;10.60;75.88;101838.47;4957851;28;45451;-53
2022/01/01 09:28:27;;;;;;;;;20.80;20.40;;;;;10.60;75.35;101843.09;4958036;28;45409;-48
2022/01/01 09:30:53;;;;;;;;;21.60;18.60;;;;;10.55;75.61;101840.91;4915470;28;45698;-55
2022/01/01 09:33:18;;;;;;;;;17.75;16.50;;;;;10.55;75.52;101821.72;4940191;28;46461;-59
2022/01/01 09:35:44;;;;;;;;;21.75;17.00;;;;;10.37;75.89;101789.06;4954598;28;45356;-58
2022/01/01 09:38:09;;;;;;;;;20.25;18.25;;;;;10.55;76.33;101816.22;4953648;28;46639;-56
2022/01/01 09:40:35;;;;;;;;;19.50;17.00;;;;;10.60;75.35;101816.53;4936453;28;45802;-56
2022/01/01 09:43:00;;;;;;;;;19.50;17.50;;;;;10.51;75.50;101798.44;4948719;28;45465;-61
2022/01/01 09:45:26;;;;;;;;;18.75;16.25;;;;;10.69;75.93;101823.63;4935366;28;45580;-58
2022/01/01 09:47:51;;;;;;;;;16.25;15.25;;;;;10.75;76.14;101824.78;4919474;28;45552;-55
2022/01/01 09:50:17;;;;;;;;;21.25;18.50;;;;;10.78;75.21;101821.66;4953915;28;45443;-55
2022/01/01 09:52:42;;;;;;;;;23.00;20.50;;;;;10.80;74.98;101819.59;4934166;28;45972;-56
2022/01/01 09:55:09;;;;;;;;;23.00;19.75;;;;;10.62;75.40;101789.72;4952198;28;45673;-57
2022/01/01 09:57:34;;;;;;;;;22.40;19.00;;;;;10.82;75.50;101812.03;4950101;28;46069;-54
2022/01/01 10:00:00;;;;;;;;;18.00;13.00;;;;;10.82;75.67;101824.88;4952350;28;45733;-62
2022/01/01 10:02:25;;;;;;;;;21.75;19.25;;;;;10.82;75.22;101816.66;4936169;28;45588;-59
2022/01/01 10:04:54;;;;;;;;;26.25;23.00;;;;;10.82;75.48;101811.16;4935930;28;45803;-61
2022/01/01 10:07:29;;;;;;;;;17.60;15.20;;;;;10.82;75.78;101812.03;4953266;28;45814;-59
2022/01/01 10:09:54;;;;;;;;;18.60;17.80;;;;;10.84;75.47;101809.09;4952450;28;45392;-60
2022/01/01 10:12:20;;;;;;;;;21.00;15.75;;;;;10.77;75.56;101798.00;4936089;28;45751;-59
2022/01/01 10:14:47;;;;;;;;;19.75;19.50;;;;;10.94;75.23;101815.16;4936231;28;46006;-60
2022/01/01 10:17:17;;;;;;;;;21.00;17.60;;;;;10.85;74.50;101802.56;4953254;28;46317;-62
2022/01/01 10:19:42;;;;;;;;;18.60;16.00;;;;;11.07;74.96;101822.75;4951973;28;45578;-60
2022/01/01 10:22:12;;;;;;;;;19.50;15.50;;;;;11.07;74.82;101819.13;4952179;28;45468;-61
2022/01/01 10:27:45;;;;;;;;;18.00;14.60;;;;;11.06;74.49;101804.53;4953170;28;46042;-61
2022/01/01 10:30:20;;;;;;;;;17.00;16.20;;;;;11.13;74.18;101823.88;4951539;28;45843;-59
2022/01/01 10:33:17;;;;;;;;;16.40;13.20;;;;;11.15;74.90;101818.19;4952415;28;45472;-59
2022/01/01 10:35:50;;;;;;;;;18.40;12.60;;;;;10.89;74.66;101775.56;4952422;28;45505;-59
2022/01/01 10:38:19;;;;;;;;;18.00;14.40;;;;;11.24;74.69;101823.41;4951513;28;47169;-55
2022/01/01 10:40:45;;;;;;;;;17.00;14.80;;;;;11.31;73.78;101823.47;4953065;28;45398;-59
2022/01/01 10:43:11;;;;;;;;;17.25;15.25;;;;;11.34;73.77;101808.50;4953093;28;45672;-57
2022/01/01 10:45:42;;;;;;;;;15.00;13.80;;;;;11.35;73.51;101811.09;4952929;28;45495;-61
2022/01/01 10:48:16;;;;;;;;;18.20;15.40;;;;;11.43;73.84;101818.38;4951763;28;45432;-58
2022/01/01 10:50:42;;;;;;;;;15.40;14.00;;;;;11.42;73.91;101818.56;4951686;28;45798;-60
2022/01/01 10:53:25;;;;;;;;;16.00;13.80;;;;;11.43;73.72;101820.25;4933443;28;45476;-61
2022/01/01 10:55:53;;;;;;;;;15.00;14.00;;;;;11.49;73.45;101825.00;4951813;28;45843;-63
2022/01/01 10:58:22;;;;;;;;;15.20;15.20;;;;;11.49;73.61;101816.75;4932431;28;47114;-62
2022/01/01 11:00:49;;;;;;;;;16.00;15.40;;;;;11.59;73.25;101824.69;4935052;28;45490;-61
2022/01/01 11:03:16;;;;;;;;;15.60;14.00;;;;;11.63;73.20;101831.53;4952639;28;45546;-62
2022/01/01 11:05:42;;;;;;;;;18.80;16.40;;;;;11.71;73.21;101823.16;4934921;28;45412;-61
2022/01/01 11:08:08;;;;;;;;;18.75;14.75;;;;;11.76;72.76;101823.44;4911861;28;46444;-55
2022/01/01 11:10:35;;;;;;;;;14.60;13.80;;;;;11.85;72.35;101818.66;4938478;28;45797;-58
2022/01/01 11:13:01;;;;;;;;;13.80;12.40;;;;;11.75;71.74;101782.38;4955096;28;45371;-59